sensor_id;sensor_type;location;lat;lon;timestamp;P1;durP1;ratioP1;P2;durP2;ratioP2
42294;SDS011;27947;47.556;18.718;2022-08-21T00:00:21;3.45;;;2.47;;
42294;SDS011;27947;47.556;18.718;2022-08-21T00:02:48;2.90;;;2.65;;
42294;SDS011;27947;47.556;18.718;2022-08-21T00:05:14;6.80;;;2.58;;
42294;SDS011;27947;47.556;18.718;2022-08-21T00:07:40;3.90;;;2.50;;
42294;SDS011;27947;47.556;18.718;2022-08-21T00:10:05;3.97;;;2.28;;
42294;SDS011;27947;47.556;18.718;2022-08-21T00:12:31;4.13;;;2.65;;
42294;SDS011;27947;47.556;18.718;2022-08-21T00:14:57;4.60;;;2.75;;
42294;SDS011;27947;47.556;18.718;2022-08-21T00:17:22;2.90;;;2.60;;
42294;SDS011;27947;47.556;18.718;2022-08-21T00:19:48;7.13;;;2.60;;
42294;SDS011;27947;47.556;18.718;2022-08-21T00:22:13;4.15;;;2.65;;
42294;SDS011;27947;47.556;18.718;2022-08-21T00:24:39;6.55;;;3.08;;
42294;SDS011;27947;47.556;18.718;2022-08-21T00:27:04;5.15;;;2.50;;
42294;SDS011;27947;47.556;18.718;2022-08-21T00:29:29;3.13;;;2.50;;
42294;SDS011;27947;47.556;18.718;2022-08-21T00:31:55;3.58;;;2.67;;
42294;SDS011;27947;47.556;18.718;2022-08-21T00:34:20;5.45;;;2.50;;
42294;SDS011;27947;47.556;18.718;2022-08-21T00:36:46;5.97;;;3.58;;
42294;SDS011;27947;47.556;18.718;2022-08-21T00:39:11;3.67;;;2.83;;
42294;SDS011;27947;47.556;18.718;2022-08-21T00:41:37;4.95;;;2.70;;
42294;SDS011;27947;47.556;18.718;2022-08-21T00:44:03;4.07;;;2.97;;
42294;SDS011;27947;47.556;18.718;2022-08-21T00:46:29;7.22;;;3.28;;
42294;SDS011;27947;47.556;18.718;2022-08-21T00:48:54;6.78;;;2.88;;
42294;SDS011;27947;47.556;18.718;2022-08-21T00:51:21;5.35;;;2.97;;
42294;SDS011;27947;47.556;18.718;2022-08-21T00:53:52;5.95;;;3.30;;
42294;SDS011;27947;47.556;18.718;2022-08-21T00:56:18;3.92;;;3.22;;
42294;SDS011;27947;47.556;18.718;2022-08-21T00:58:44;4.70;;;3.30;;
42294;SDS011;27947;47.556;18.718;2022-08-21T01:01:10;3.50;;;2.47;;
42294;SDS011;27947;47.556;18.718;2022-08-21T01:03:36;5.28;;;3.15;;
42294;SDS011;27947;47.556;18.718;2022-08-21T01:06:02;6.03;;;2.83;;
42294;SDS011;27947;47.556;18.718;2022-08-21T01:08:29;4.57;;;3.17;;
42294;SDS011;27947;47.556;18.718;2022-08-21T01:10:55;5.32;;;2.90;;
42294;SDS011;27947;47.556;18.718;2022-08-21T01:13:24;3.58;;;2.72;;
42294;SDS011;27947;47.556;18.718;2022-08-21T01:15:50;4.60;;;2.67;;
42294;SDS011;27947;47.556;18.718;2022-08-21T01:18:17;4.28;;;3.17;;
42294;SDS011;27947;47.556;18.718;2022-08-21T01:20:44;5.40;;;3.30;;
42294;SDS011;27947;47.556;18.718;2022-08-21T01:23:10;5.68;;;2.95;;
42294;SDS011;27947;47.556;18.718;2022-08-21T01:25:36;7.70;;;3.30;;
42294;SDS011;27947;47.556;18.718;2022-08-21T01:28:04;4.65;;;3.05;;
42294;SDS011;27947;47.556;18.718;2022-08-21T01:30:31;4.68;;;2.83;;
42294;SDS011;27947;47.556;18.718;2022-08-21T01:32:59;4.68;;;2.92;;
42294;SDS011;27947;47.556;18.718;2022-08-21T01:35:25;7.90;;;3.28;;
42294;SDS011;27947;47.556;18.718;2022-08-21T01:37:50;6.07;;;3.08;;
42294;SDS011;27947;47.556;18.718;2022-08-21T01:40:16;5.30;;;3.00;;
42294;SDS011;27947;47.556;18.718;2022-08-21T01:42:42;7.53;;;3.15;;
42294;SDS011;27947;47.556;18.718;2022-08-21T01:45:08;6.32;;;3.35;;
42294;SDS011;27947;47.556;18.718;2022-08-21T01:47:34;5.30;;;3.47;;
42294;SDS011;27947;47.556;18.718;2022-08-21T01:49:59;6.95;;;4.07;;
42294;SDS011;27947;47.556;18.718;2022-08-21T01:52:25;8.65;;;3.78;;
42294;SDS011;27947;47.556;18.718;2022-08-21T01:54:50;6.95;;;3.10;;
42294;SDS011;27947;47.556;18.718;2022-08-21T01:57:16;6.63;;;3.67;;
42294;SDS011;27947;47.556;18.718;2022-08-21T01:59:41;7.90;;;3.75;;
42294;SDS011;27947;47.556;18.718;2022-08-21T02:02:07;4.78;;;3.40;;
42294;SDS011;27947;47.556;18.718;2022-08-21T02:04:32;7.18;;;3.97;;
42294;SDS011;27947;47.556;18.718;2022-08-21T02:06:57;4.57;;;3.33;;
42294;SDS011;27947;47.556;18.718;2022-08-21T02:09:23;8.10;;;3.60;;
42294;SDS011;27947;47.556;18.718;2022-08-21T02:11:49;9.98;;;3.88;;
42294;SDS011;27947;47.556;18.718;2022-08-21T02:14:14;6.70;;;4.25;;
42294;SDS011;27947;47.556;18.718;2022-08-21T02:16:41;11.90;;;4.38;;
42294;SDS011;27947;47.556;18.718;2022-08-21T02:19:06;11.10;;;4.50;;
42294;SDS011;27947;47.556;18.718;2022-08-21T02:21:32;8.02;;;4.28;;
42294;SDS011;27947;47.556;18.718;2022-08-21T02:23:57;5.72;;;3.95;;
42294;SDS011;27947;47.556;18.718;2022-08-21T02:26:22;6.05;;;3.90;;
42294;SDS011;27947;47.556;18.718;2022-08-21T02:28:48;5.35;;;3.92;;
42294;SDS011;27947;47.556;18.718;2022-08-21T02:31:13;7.53;;;4.28;;
42294;SDS011;27947;47.556;18.718;2022-08-21T02:33:39;6.38;;;4.20;;
42294;SDS011;27947;47.556;18.718;2022-08-21T02:36:05;10.77;;;4.05;;
42294;SDS011;27947;47.556;18.718;2022-08-21T02:38:31;6.05;;;4.03;;
42294;SDS011;27947;47.556;18.718;2022-08-21T02:41:03;6.43;;;3.70;;
42294;SDS011;27947;47.556;18.718;2022-08-21T02:43:28;5.65;;;3.88;;
42294;SDS011;27947;47.556;18.718;2022-08-21T02:45:54;7.15;;;3.95;;
42294;SDS011;27947;47.556;18.718;2022-08-21T02:48:21;5.00;;;3.67;;
42294;SDS011;27947;47.556;18.718;2022-08-21T02:50:51;5.55;;;3.95;;
42294;SDS011;27947;47.556;18.718;2022-08-21T02:53:17;7.45;;;3.95;;
42294;SDS011;27947;47.556;18.718;2022-08-21T02:55:43;7.25;;;3.78;;
42294;SDS011;27947;47.556;18.718;2022-08-21T02:58:09;7.28;;;3.83;;
42294;SDS011;27947;47.556;18.718;2022-08-21T03:00:34;6.65;;;4.55;;
42294;SDS011;27947;47.556;18.718;2022-08-21T03:03:00;5.88;;;3.90;;
42294;SDS011;27947;47.556;18.718;2022-08-21T03:05:26;6.40;;;4.15;;
42294;SDS011;27947;47.556;18.718;2022-08-21T03:07:52;12.40;;;5.03;;
42294;SDS011;27947;47.556;18.718;2022-08-21T03:10:19;9.32;;;5.03;;
42294;SDS011;27947;47.556;18.718;2022-08-21T03:12:45;8.32;;;4.93;;
42294;SDS011;27947;47.556;18.718;2022-08-21T03:15:11;9.30;;;4.93;;
42294;SDS011;27947;47.556;18.718;2022-08-21T03:17:37;12.23;;;4.75;;
42294;SDS011;27947;47.556;18.718;2022-08-21T03:20:06;10.55;;;5.07;;
42294;SDS011;27947;47.556;18.718;2022-08-21T03:22:32;10.15;;;5.15;;
42294;SDS011;27947;47.556;18.718;2022-08-21T03:24:58;9.90;;;5.95;;
42294;SDS011;27947;47.556;18.718;2022-08-21T03:27:24;12.13;;;5.70;;
42294;SDS011;27947;47.556;18.718;2022-08-21T03:29:49;7.53;;;4.95;;
42294;SDS011;27947;47.556;18.718;2022-08-21T03:32:15;7.95;;;5.00;;
42294;SDS011;27947;47.556;18.718;2022-08-21T03:34:40;10.10;;;5.35;;
42294;SDS011;27947;47.556;18.718;2022-08-21T03:37:06;7.28;;;5.18;;
42294;SDS011;27947;47.556;18.718;2022-08-21T03:39:32;6.72;;;5.18;;
42294;SDS011;27947;47.556;18.718;2022-08-21T03:41:57;7.97;;;5.22;;
42294;SDS011;27947;47.556;18.718;2022-08-21T03:44:23;10.38;;;5.10;;
42294;SDS011;27947;47.556;18.718;2022-08-21T03:46:49;13.02;;;5.80;;
42294;SDS011;27947;47.556;18.718;2022-08-21T03:49:15;7.60;;;5.25;;
42294;SDS011;27947;47.556;18.718;2022-08-21T03:51:40;8.57;;;5.63;;
42294;SDS011;27947;47.556;18.718;2022-08-21T03:54:05;9.55;;;5.47;;
42294;SDS011;27947;47.556;18.718;2022-08-21T03:56:31;7.50;;;5.10;;
42294;SDS011;27947;47.556;18.718;2022-08-21T03:58:56;11.00;;;5.70;;
42294;SDS011;27947;47.556;18.718;2022-08-21T04:01:22;8.95;;;4.75;;
42294;SDS011;27947;47.556;18.718;2022-08-21T04:03:47;6.40;;;4.82;;
42294;SDS011;27947;47.556;18.718;2022-08-21T04:06:13;10.02;;;5.35;;
42294;SDS011;27947;47.556;18.718;2022-08-21T04:08:38;8.60;;;5.25;;
42294;SDS011;27947;47.556;18.718;2022-08-21T04:11:03;8.48;;;5.53;;
42294;SDS011;27947;47.556;18.718;2022-08-21T04:13:29;7.15;;;5.47;;
42294;SDS011;27947;47.556;18.718;2022-08-21T04:15:55;8.55;;;4.75;;
42294;SDS011;27947;47.556;18.718;2022-08-21T04:18:21;6.63;;;4.75;;
42294;SDS011;27947;47.556;18.718;2022-08-21T04:20:47;7.60;;;4.70;;
42294;SDS011;27947;47.556;18.718;2022-08-21T04:23:14;8.02;;;4.85;;
42294;SDS011;27947;47.556;18.718;2022-08-21T04:25:39;5.45;;;4.00;;
42294;SDS011;27947;47.556;18.718;2022-08-21T04:28:04;7.50;;;4.35;;
42294;SDS011;27947;47.556;18.718;2022-08-21T04:30:30;6.90;;;4.25;;
42294;SDS011;27947;47.556;18.718;2022-08-21T04:32:56;10.63;;;4.25;;
42294;SDS011;27947;47.556;18.718;2022-08-21T04:35:22;9.88;;;3.58;;
42294;SDS011;27947;47.556;18.718;2022-08-21T04:37:48;7.47;;;3.47;;
42294;SDS011;27947;47.556;18.718;2022-08-21T04:40:14;4.40;;;3.20;;
42294;SDS011;27947;47.556;18.718;2022-08-21T04:42:44;4.05;;;2.90;;
42294;SDS011;27947;47.556;18.718;2022-08-21T04:45:17;6.28;;;2.97;;
42294;SDS011;27947;47.556;18.718;2022-08-21T04:47:45;4.63;;;3.13;;
42294;SDS011;27947;47.556;18.718;2022-08-21T04:50:10;3.70;;;2.72;;
42294;SDS011;27947;47.556;18.718;2022-08-21T04:52:51;11.80;;;3.22;;
42294;SDS011;27947;47.556;18.718;2022-08-21T04:55:17;4.88;;;3.03;;
42294;SDS011;27947;47.556;18.718;2022-08-21T04:57:43;5.47;;;2.72;;
42294;SDS011;27947;47.556;18.718;2022-08-21T05:00:09;3.20;;;2.42;;
42294;SDS011;27947;47.556;18.718;2022-08-21T05:02:36;4.20;;;3.10;;
42294;SDS011;27947;47.556;18.718;2022-08-21T05:05:02;3.85;;;2.80;;
42294;SDS011;27947;47.556;18.718;2022-08-21T05:07:28;4.47;;;2.72;;
42294;SDS011;27947;47.556;18.718;2022-08-21T05:09:55;3.90;;;2.65;;
42294;SDS011;27947;47.556;18.718;2022-08-21T05:12:20;3.78;;;2.65;;
42294;SDS011;27947;47.556;18.718;2022-08-21T05:14:46;4.20;;;3.10;;
42294;SDS011;27947;47.556;18.718;2022-08-21T05:17:12;3.63;;;2.60;;
42294;SDS011;27947;47.556;18.718;2022-08-21T05:19:37;3.03;;;2.30;;
42294;SDS011;27947;47.556;18.718;2022-08-21T05:22:03;3.65;;;2.53;;
42294;SDS011;27947;47.556;18.718;2022-08-21T05:24:29;3.25;;;2.20;;
42294;SDS011;27947;47.556;18.718;2022-08-21T05:26:54;3.78;;;2.20;;
42294;SDS011;27947;47.556;18.718;2022-08-21T05:29:20;5.45;;;2.50;;
42294;SDS011;27947;47.556;18.718;2022-08-21T05:31:46;2.78;;;2.20;;
42294;SDS011;27947;47.556;18.718;2022-08-21T05:34:12;3.60;;;2.60;;
42294;SDS011;27947;47.556;18.718;2022-08-21T05:36:37;3.65;;;2.33;;
42294;SDS011;27947;47.556;18.718;2022-08-21T05:39:03;2.83;;;2.13;;
42294;SDS011;27947;47.556;18.718;2022-08-21T05:41:29;4.35;;;2.60;;
42294;SDS011;27947;47.556;18.718;2022-08-21T05:43:54;3.85;;;2.40;;
42294;SDS011;27947;47.556;18.718;2022-08-21T05:46:19;4.05;;;2.67;;
42294;SDS011;27947;47.556;18.718;2022-08-21T05:48:45;5.10;;;2.50;;
42294;SDS011;27947;47.556;18.718;2022-08-21T05:51:11;3.63;;;2.70;;
42294;SDS011;27947;47.556;18.718;2022-08-21T05:53:37;3.55;;;2.63;;
42294;SDS011;27947;47.556;18.718;2022-08-21T05:56:03;4.78;;;3.03;;
42294;SDS011;27947;47.556;18.718;2022-08-21T05:58:29;3.00;;;2.33;;
42294;SDS011;27947;47.556;18.718;2022-08-21T06:00:54;4.05;;;2.42;;
42294;SDS011;27947;47.556;18.718;2022-08-21T06:03:21;4.20;;;2.63;;
42294;SDS011;27947;47.556;18.718;2022-08-21T06:05:47;3.17;;;2.38;;
42294;SDS011;27947;47.556;18.718;2022-08-21T06:08:13;4.05;;;2.75;;
42294;SDS011;27947;47.556;18.718;2022-08-21T06:10:39;3.83;;;2.85;;
42294;SDS011;27947;47.556;18.718;2022-08-21T06:13:05;6.22;;;2.53;;
42294;SDS011;27947;47.556;18.718;2022-08-21T06:15:30;2.97;;;2.35;;
42294;SDS011;27947;47.556;18.718;2022-08-21T06:17:55;3.35;;;2.10;;
42294;SDS011;27947;47.556;18.718;2022-08-21T06:20:21;3.92;;;2.42;;
42294;SDS011;27947;47.556;18.718;2022-08-21T06:22:46;3.42;;;2.47;;
42294;SDS011;27947;47.556;18.718;2022-08-21T06:25:12;4.80;;;2.70;;
42294;SDS011;27947;47.556;18.718;2022-08-21T06:27:37;3.92;;;2.78;;
42294;SDS011;27947;47.556;18.718;2022-08-21T06:30:05;4.53;;;2.67;;
42294;SDS011;27947;47.556;18.718;2022-08-21T06:32:31;3.67;;;2.80;;
42294;SDS011;27947;47.556;18.718;2022-08-21T06:34:56;3.72;;;2.67;;
42294;SDS011;27947;47.556;18.718;2022-08-21T06:37:22;4.28;;;2.63;;
42294;SDS011;27947;47.556;18.718;2022-08-21T06:39:47;4.72;;;2.97;;
42294;SDS011;27947;47.556;18.718;2022-08-21T06:42:16;5.45;;;2.95;;
42294;SDS011;27947;47.556;18.718;2022-08-21T06:44:43;4.53;;;2.70;;
42294;SDS011;27947;47.556;18.718;2022-08-21T06:47:08;3.17;;;2.80;;
42294;SDS011;27947;47.556;18.718;2022-08-21T06:49:34;7.07;;;3.35;;
42294;SDS011;27947;47.556;18.718;2022-08-21T06:52:00;10.38;;;3.33;;
42294;SDS011;27947;47.556;18.718;2022-08-21T06:54:25;5.18;;;2.92;;
42294;SDS011;27947;47.556;18.718;2022-08-21T06:56:50;4.05;;;2.72;;
42294;SDS011;27947;47.556;18.718;2022-08-21T06:59:16;3.92;;;2.65;;
42294;SDS011;27947;47.556;18.718;2022-08-21T07:01:41;4.32;;;2.88;;
42294;SDS011;27947;47.556;18.718;2022-08-21T07:04:07;6.25;;;2.90;;
42294;SDS011;27947;47.556;18.718;2022-08-21T07:06:32;4.63;;;3.55;;
42294;SDS011;27947;47.556;18.718;2022-08-21T07:08:57;4.43;;;2.97;;
42294;SDS011;27947;47.556;18.718;2022-08-21T07:11:23;4.35;;;3.05;;
42294;SDS011;27947;47.556;18.718;2022-08-21T07:13:49;5.32;;;3.42;;
42294;SDS011;27947;47.556;18.718;2022-08-21T07:16:18;4.43;;;2.85;;
42294;SDS011;27947;47.556;18.718;2022-08-21T07:18:43;5.03;;;2.92;;
42294;SDS011;27947;47.556;18.718;2022-08-21T07:21:08;3.95;;;2.97;;
42294;SDS011;27947;47.556;18.718;2022-08-21T07:23:44;4.43;;;3.72;;
42294;SDS011;27947;47.556;18.718;2022-08-21T07:26:10;4.00;;;3.03;;
42294;SDS011;27947;47.556;18.718;2022-08-21T07:28:36;3.10;;;2.60;;
42294;SDS011;27947;47.556;18.718;2022-08-21T07:31:02;4.43;;;3.13;;
42294;SDS011;27947;47.556;18.718;2022-08-21T07:33:28;5.63;;;3.17;;
42294;SDS011;27947;47.556;18.718;2022-08-21T07:35:54;5.32;;;3.78;;
42294;SDS011;27947;47.556;18.718;2022-08-21T07:38:20;5.95;;;3.38;;
42294;SDS011;27947;47.556;18.718;2022-08-21T07:40:46;4.20;;;2.83;;
42294;SDS011;27947;47.556;18.718;2022-08-21T07:43:12;5.95;;;3.22;;
42294;SDS011;27947;47.556;18.718;2022-08-21T07:45:37;7.30;;;3.25;;
42294;SDS011;27947;47.556;18.718;2022-08-21T07:48:03;4.53;;;3.08;;
42294;SDS011;27947;47.556;18.718;2022-08-21T07:50:28;6.97;;;3.15;;
42294;SDS011;27947;47.556;18.718;2022-08-21T07:52:54;11.50;;;3.25;;
42294;SDS011;27947;47.556;18.718;2022-08-21T07:55:19;4.40;;;2.97;;
42294;SDS011;27947;47.556;18.718;2022-08-21T07:57:46;6.07;;;3.28;;
42294;SDS011;27947;47.556;18.718;2022-08-21T08:00:13;4.05;;;2.70;;
42294;SDS011;27947;47.556;18.718;2022-08-21T08:02:40;3.15;;;2.33;;
42294;SDS011;27947;47.556;18.718;2022-08-21T08:05:07;4.07;;;3.10;;
42294;SDS011;27947;47.556;18.718;2022-08-21T08:07:33;5.57;;;2.88;;
42294;SDS011;27947;47.556;18.718;2022-08-21T08:09:59;5.18;;;3.00;;
42294;SDS011;27947;47.556;18.718;2022-08-21T08:12:24;6.82;;;3.33;;
42294;SDS011;27947;47.556;18.718;2022-08-21T08:14:57;7.15;;;3.55;;
42294;SDS011;27947;47.556;18.718;2022-08-21T08:17:22;4.82;;;3.25;;
42294;SDS011;27947;47.556;18.718;2022-08-21T08:19:48;6.10;;;3.05;;
42294;SDS011;27947;47.556;18.718;2022-08-21T08:22:18;6.60;;;3.88;;
42294;SDS011;27947;47.556;18.718;2022-08-21T08:24:47;7.20;;;3.22;;
42294;SDS011;27947;47.556;18.718;2022-08-21T08:27:13;4.80;;;2.83;;
42294;SDS011;27947;47.556;18.718;2022-08-21T08:29:39;4.07;;;3.17;;
42294;SDS011;27947;47.556;18.718;2022-08-21T08:32:05;4.72;;;3.60;;
42294;SDS011;27947;47.556;18.718;2022-08-21T08:34:32;5.32;;;3.67;;
42294;SDS011;27947;47.556;18.718;2022-08-21T08:36:57;4.07;;;2.65;;
42294;SDS011;27947;47.556;18.718;2022-08-21T08:39:23;4.05;;;3.20;;
42294;SDS011;27947;47.556;18.718;2022-08-21T08:41:49;4.53;;;3.20;;
42294;SDS011;27947;47.556;18.718;2022-08-21T08:44:16;8.68;;;3.00;;
42294;SDS011;27947;47.556;18.718;2022-08-21T08:46:45;3.90;;;3.10;;
42294;SDS011;27947;47.556;18.718;2022-08-21T08:49:13;4.47;;;2.83;;
42294;SDS011;27947;47.556;18.718;2022-08-21T08:51:47;3.70;;;2.90;;
42294;SDS011;27947;47.556;18.718;2022-08-21T08:54:24;6.68;;;3.03;;
42294;SDS011;27947;47.556;18.718;2022-08-21T08:56:50;4.20;;;2.90;;
42294;SDS011;27947;47.556;18.718;2022-08-21T08:59:22;4.68;;;3.40;;
42294;SDS011;27947;47.556;18.718;2022-08-21T09:01:51;3.38;;;2.88;;
42294;SDS011;27947;47.556;18.718;2022-08-21T09:04:18;4.78;;;2.53;;
42294;SDS011;27947;47.556;18.718;2022-08-21T09:06:50;21.23;;;4.90;;
42294;SDS011;27947;47.556;18.718;2022-08-21T09:19:54;3.55;;;2.50;;
42294;SDS011;27947;47.556;18.718;2022-08-21T09:25:24;5.38;;;2.85;;
42294;SDS011;27947;47.556;18.718;2022-08-21T09:27:50;5.20;;;2.80;;
42294;SDS011;27947;47.556;18.718;2022-08-21T09:30:16;4.45;;;2.75;;
42294;SDS011;27947;47.556;18.718;2022-08-21T09:32:42;5.05;;;2.53;;
42294;SDS011;27947;47.556;18.718;2022-08-21T09:37:46;4.72;;;2.70;;
42294;SDS011;27947;47.556;18.718;2022-08-21T09:42:58;3.75;;;2.78;;
42294;SDS011;27947;47.556;18.718;2022-08-21T09:45:23;3.08;;;2.40;;
42294;SDS011;27947;47.556;18.718;2022-08-21T09:47:49;3.83;;;2.40;;
42294;SDS011;27947;47.556;18.718;2022-08-21T09:50:24;3.22;;;2.20;;
42294;SDS011;27947;47.556;18.718;2022-08-21T09:52:52;10.82;;;3.20;;
42294;SDS011;27947;47.556;18.718;2022-08-21T09:55:30;4.63;;;2.88;;
42294;SDS011;27947;47.556;18.718;2022-08-21T09:58:15;3.63;;;2.88;;
42294;SDS011;27947;47.556;18.718;2022-08-21T10:00:41;3.25;;;2.65;;
42294;SDS011;27947;47.556;18.718;2022-08-21T10:05:38;5.47;;;3.20;;
42294;SDS011;27947;47.556;18.718;2022-08-21T10:08:04;5.47;;;3.05;;
42294;SDS011;27947;47.556;18.718;2022-08-21T10:10:31;3.78;;;3.33;;
42294;SDS011;27947;47.556;18.718;2022-08-21T10:20:57;5.57;;;2.97;;
42294;SDS011;27947;47.556;18.718;2022-08-21T10:25:58;18.60;;;4.63;;
42294;SDS011;27947;47.556;18.718;2022-08-21T10:28:32;2.67;;;2.28;;
42294;SDS011;27947;47.556;18.718;2022-08-21T10:31:08;3.80;;;3.25;;
42294;SDS011;27947;47.556;18.718;2022-08-21T10:36:20;4.18;;;3.22;;
42294;SDS011;27947;47.556;18.718;2022-08-21T10:38:53;4.20;;;3.25;;
42294;SDS011;27947;47.556;18.718;2022-08-21T10:46:54;7.72;;;3.03;;
42294;SDS011;27947;47.556;18.718;2022-08-21T10:54:36;4.68;;;2.90;;
42294;SDS011;27947;47.556;18.718;2022-08-21T10:57:09;3.10;;;2.30;;
42294;SDS011;27947;47.556;18.718;2022-08-21T11:07:38;2.97;;;2.42;;
42294;SDS011;27947;47.556;18.718;2022-08-21T11:10:24;7.43;;;2.22;;
42294;SDS011;27947;47.556;18.718;2022-08-21T11:12:52;4.65;;;2.60;;
42294;SDS011;27947;47.556;18.718;2022-08-21T11:23:38;4.53;;;2.33;;
42294;SDS011;27947;47.556;18.718;2022-08-21T11:26:07;3.03;;;2.40;;
42294;SDS011;27947;47.556;18.718;2022-08-21T11:28:55;3.08;;;2.47;;
42294;SDS011;27947;47.556;18.718;2022-08-21T11:31:32;6.18;;;2.67;;
42294;SDS011;27947;47.556;18.718;2022-08-21T11:34:03;3.47;;;2.33;;
42294;SDS011;27947;47.556;18.718;2022-08-21T11:41:29;3.05;;;2.30;;
42294;SDS011;27947;47.556;18.718;2022-08-21T11:44:08;4.85;;;2.67;;
42294;SDS011;27947;47.556;18.718;2022-08-21T11:57:08;5.75;;;2.35;;
42294;SDS011;27947;47.556;18.718;2022-08-21T11:59:43;2.50;;;2.00;;
42294;SDS011;27947;47.556;18.718;2022-08-21T12:02:12;7.95;;;2.00;;
42294;SDS011;27947;47.556;18.718;2022-08-21T12:04:43;3.08;;;2.40;;
42294;SDS011;27947;47.556;18.718;2022-08-21T12:07:10;3.10;;;2.00;;
42294;SDS011;27947;47.556;18.718;2022-08-21T12:09:36;3.03;;;2.10;;
42294;SDS011;27947;47.556;18.718;2022-08-21T12:12:22;5.65;;;2.55;;
42294;SDS011;27947;47.556;18.718;2022-08-21T12:14:49;2.83;;;2.13;;
42294;SDS011;27947;47.556;18.718;2022-08-21T12:17:22;2.42;;;2.00;;
42294;SDS011;27947;47.556;18.718;2022-08-21T12:20:16;4.25;;;2.45;;
42294;SDS011;27947;47.556;18.718;2022-08-21T12:22:47;9.02;;;2.65;;
42294;SDS011;27947;47.556;18.718;2022-08-21T12:25:16;4.28;;;2.85;;
42294;SDS011;27947;47.556;18.718;2022-08-21T12:30:32;2.80;;;2.28;;
42294;SDS011;27947;47.556;18.718;2022-08-21T12:33:03;4.68;;;1.80;;
42294;SDS011;27947;47.556;18.718;2022-08-21T12:35:38;6.25;;;2.80;;
42294;SDS011;27947;47.556;18.718;2022-08-21T12:40:40;4.90;;;1.60;;
42294;SDS011;27947;47.556;18.718;2022-08-21T12:43:10;2.38;;;1.90;;
42294;SDS011;27947;47.556;18.718;2022-08-21T12:45:39;6.25;;;2.00;;
42294;SDS011;27947;47.556;18.718;2022-08-21T12:50:40;4.25;;;2.00;;
42294;SDS011;27947;47.556;18.718;2022-08-21T12:55:31;3.60;;;1.80;;
42294;SDS011;27947;47.556;18.718;2022-08-21T12:57:57;3.22;;;1.50;;
42294;SDS011;27947;47.556;18.718;2022-08-21T13:00:24;2.67;;;2.10;;
42294;SDS011;27947;47.556;18.718;2022-08-21T13:02:50;1.85;;;1.67;;
42294;SDS011;27947;47.556;18.718;2022-08-21T13:05:26;5.78;;;2.05;;
42294;SDS011;27947;47.556;18.718;2022-08-21T13:07:52;3.55;;;1.90;;
42294;SDS011;27947;47.556;18.718;2022-08-21T13:10:27;2.65;;;1.80;;
42294;SDS011;27947;47.556;18.718;2022-08-21T13:13:00;4.68;;;1.55;;
42294;SDS011;27947;47.556;18.718;2022-08-21T13:15:30;1.58;;;1.40;;
42294;SDS011;27947;47.556;18.718;2022-08-21T13:17:57;4.28;;;1.50;;
42294;SDS011;27947;47.556;18.718;2022-08-21T13:20:30;2.20;;;1.40;;
42294;SDS011;27947;47.556;18.718;2022-08-21T13:22:56;4.63;;;1.10;;
42294;SDS011;27947;47.556;18.718;2022-08-21T13:25:25;2.40;;;0.90;;
42294;SDS011;27947;47.556;18.718;2022-08-21T13:27:58;2.83;;;0.98;;
42294;SDS011;27947;47.556;18.718;2022-08-21T13:30:24;0.63;;;0.63;;
42294;SDS011;27947;47.556;18.718;2022-08-21T13:32:51;2.65;;;0.82;;
42294;SDS011;27947;47.556;18.718;2022-08-21T13:35:36;1.08;;;0.88;;
42294;SDS011;27947;47.556;18.718;2022-08-21T13:38:05;1.70;;;0.80;;
42294;SDS011;27947;47.556;18.718;2022-08-21T13:40:41;1.38;;;0.80;;
42294;SDS011;27947;47.556;18.718;2022-08-21T13:43:11;3.53;;;0.80;;
42294;SDS011;27947;47.556;18.718;2022-08-21T13:45:37;1.27;;;0.68;;
42294;SDS011;27947;47.556;18.718;2022-08-21T13:48:02;3.15;;;0.93;;
42294;SDS011;27947;47.556;18.718;2022-08-21T13:50:28;2.08;;;1.05;;
42294;SDS011;27947;47.556;18.718;2022-08-21T13:53:00;1.17;;;1.00;;
42294;SDS011;27947;47.556;18.718;2022-08-21T13:55:25;1.35;;;0.80;;
42294;SDS011;27947;47.556;18.718;2022-08-21T13:57:59;1.48;;;1.05;;
42294;SDS011;27947;47.556;18.718;2022-08-21T14:00:26;0.85;;;0.75;;
42294;SDS011;27947;47.556;18.718;2022-08-21T14:02:53;0.80;;;0.80;;
42294;SDS011;27947;47.556;18.718;2022-08-21T14:05:26;1.13;;;0.90;;
42294;SDS011;27947;47.556;18.718;2022-08-21T14:08:14;0.90;;;0.73;;
42294;SDS011;27947;47.556;18.718;2022-08-21T14:10:56;3.40;;;0.73;;
42294;SDS011;27947;47.556;18.718;2022-08-21T14:13:30;4.38;;;1.10;;
42294;SDS011;27947;47.556;18.718;2022-08-21T14:15:59;2.22;;;0.70;;
42294;SDS011;27947;47.556;18.718;2022-08-21T14:18:24;1.05;;;0.85;;
42294;SDS011;27947;47.556;18.718;2022-08-21T14:20:51;5.13;;;0.75;;
42294;SDS011;27947;47.556;18.718;2022-08-21T14:23:25;2.25;;;0.70;;
42294;SDS011;27947;47.556;18.718;2022-08-21T14:25:51;3.25;;;1.63;;
42294;SDS011;27947;47.556;18.718;2022-08-21T14:28:24;0.82;;;0.50;;
42294;SDS011;27947;47.556;18.718;2022-08-21T14:30:50;3.92;;;0.90;;
42294;SDS011;27947;47.556;18.718;2022-08-21T14:33:24;1.60;;;0.60;;
42294;SDS011;27947;47.556;18.718;2022-08-21T14:35:50;3.50;;;0.60;;
42294;SDS011;27947;47.556;18.718;2022-08-21T14:38:16;1.77;;;0.80;;
42294;SDS011;27947;47.556;18.718;2022-08-21T14:40:42;2.97;;;0.60;;
42294;SDS011;27947;47.556;18.718;2022-08-21T14:43:08;7.05;;;0.77;;
42294;SDS011;27947;47.556;18.718;2022-08-21T14:45:34;3.10;;;1.00;;
42294;SDS011;27947;47.556;18.718;2022-08-21T14:48:01;0.98;;;0.60;;
42294;SDS011;27947;47.556;18.718;2022-08-21T14:50:27;2.85;;;0.70;;
42294;SDS011;27947;47.556;18.718;2022-08-21T14:52:52;1.77;;;0.82;;
42294;SDS011;27947;47.556;18.718;2022-08-21T14:55:18;1.00;;;0.65;;
42294;SDS011;27947;47.556;18.718;2022-08-21T14:57:50;1.38;;;0.80;;
42294;SDS011;27947;47.556;18.718;2022-08-21T15:00:17;1.83;;;0.90;;
42294;SDS011;27947;47.556;18.718;2022-08-21T15:02:43;0.57;;;0.50;;
42294;SDS011;27947;47.556;18.718;2022-08-21T15:05:08;0.90;;;0.75;;
42294;SDS011;27947;47.556;18.718;2022-08-21T15:07:34;1.00;;;0.80;;
42294;SDS011;27947;47.556;18.718;2022-08-21T15:09:59;0.68;;;0.65;;
42294;SDS011;27947;47.556;18.718;2022-08-21T15:12:25;1.15;;;0.82;;
42294;SDS011;27947;47.556;18.718;2022-08-21T15:14:50;0.60;;;0.60;;
42294;SDS011;27947;47.556;18.718;2022-08-21T15:17:16;2.60;;;0.90;;
42294;SDS011;27947;47.556;18.718;2022-08-21T15:19:42;1.23;;;0.90;;
42294;SDS011;27947;47.556;18.718;2022-08-21T15:22:07;1.27;;;0.93;;
42294;SDS011;27947;47.556;18.718;2022-08-21T15:24:33;1.10;;;0.75;;
42294;SDS011;27947;47.556;18.718;2022-08-21T15:26:59;1.17;;;0.80;;
42294;SDS011;27947;47.556;18.718;2022-08-21T15:29:25;1.10;;;0.85;;
42294;SDS011;27947;47.556;18.718;2022-08-21T15:31:58;1.15;;;1.00;;
42294;SDS011;27947;47.556;18.718;2022-08-21T15:34:25;1.48;;;0.90;;
42294;SDS011;27947;47.556;18.718;2022-08-21T15:36:51;1.48;;;1.05;;
42294;SDS011;27947;47.556;18.718;2022-08-21T15:39:16;0.93;;;0.73;;
42294;SDS011;27947;47.556;18.718;2022-08-21T15:41:42;2.00;;;0.85;;
42294;SDS011;27947;47.556;18.718;2022-08-21T15:44:09;2.03;;;1.00;;
42294;SDS011;27947;47.556;18.718;2022-08-21T15:46:35;1.30;;;1.10;;
42294;SDS011;27947;47.556;18.718;2022-08-21T15:49:01;1.20;;;0.98;;
42294;SDS011;27947;47.556;18.718;2022-08-21T15:51:26;1.05;;;0.82;;
42294;SDS011;27947;47.556;18.718;2022-08-21T15:53:52;1.30;;;0.85;;
42294;SDS011;27947;47.556;18.718;2022-08-21T15:56:24;2.42;;;1.00;;
42294;SDS011;27947;47.556;18.718;2022-08-21T15:58:51;2.03;;;1.08;;
42294;SDS011;27947;47.556;18.718;2022-08-21T16:01:17;1.27;;;1.02;;